Main page
METAR-TAF:

METAR-TAF

Airports :

Lawrence Municipal Airport

Lawrence, Kansas, United States

latitude: 39-00-30N, longitude: 095-12-42W, elevation: 830 ft

Current weather observation

The report was made 1 hour and 3 minutes ago, at 22:52 UTC
Wind 22 mph from the Northwest with gusts up to 35 mph
Temperature 64°F
Humidity 24%
Pressure 29.89 in. Hg
Visibility: 10 miles
Scattered clouds at a height of 10000 ft

METAR: KLWC 232252Z AUTO 32019G30KT 10SM SCT100 18/M03 A2989 RMK AO1 PK WND 31032/2218 SLP121 T01781033

Time: 17:55 (23:55 UTC)


TAF: missing

Weather observations and forecasts of more than 4000 airports (METAR and TAF reports).

The available stations are represented by yellow and red dots on the map.

Hover mouse over dot to see the name of the station.

Then click to see weather observations and forecasts.

To change the map : click on the green buttons with a black cross to zoom in, on the green button with a dash to zoom out, or on the green arrows for adjacent maps.


METAR-TAF: